createdAt,value
2023-06-05T00:00:42.100Z,100483.88
2023-06-05T00:05:43.542Z,100483.03
2023-06-05T00:10:44.977Z,100480.41
2023-06-05T00:15:46.614Z,100487.19
2023-06-05T00:20:48.085Z,100478.03
2023-06-05T00:25:49.541Z,100478.03
2023-06-05T00:30:51.059Z,100476.00
2023-06-05T00:35:52.540Z,100471.84
2023-06-05T00:40:54.020Z,100479.22
2023-06-05T00:45:59.502Z,100479.69
2023-06-05T00:51:01.129Z,100472.94
2023-06-05T00:56:03.326Z,100481.94
2023-06-05T01:01:05.302Z,100480.50
2023-06-05T01:06:06.757Z,100474.81
2023-06-05T01:11:18.984Z,100473.28
2023-06-05T01:16:20.520Z,100476.47
2023-06-05T01:21:23.872Z,100475.88
2023-06-05T01:26:54.014Z,100475.03
2023-06-05T01:31:57.558Z,100474.81
2023-06-05T01:36:58.981Z,100469.59
2023-06-05T01:42:00.442Z,100463.28
2023-06-05T01:47:01.946Z,100459.94
2023-06-05T01:52:03.437Z,100471.25
2023-06-05T01:57:05.415Z,100467.09
2023-06-05T02:02:07.067Z,100463.28
2023-06-05T02:07:09.294Z,100462.69
2023-06-05T02:12:11.151Z,100458.28
2023-06-05T02:17:14.394Z,100457.09
2023-06-05T02:22:15.845Z,100448.44
2023-06-05T02:27:17.456Z,100440.81
2023-06-05T02:32:19.403Z,100446.75
2023-06-05T02:37:23.635Z,100450.31
2023-06-05T02:42:25.087Z,100446.75
2023-06-05T02:47:26.580Z,100440.22
2023-06-05T02:52:35.600Z,100452.22
2023-06-05T02:57:42.197Z,100454.25
2023-06-05T03:02:49.305Z,100453.66
2023-06-05T03:07:54.079Z,100457.94
2023-06-05T03:12:55.590Z,100453.91
2023-06-05T03:17:57.091Z,100448.88
2023-06-05T03:22:58.602Z,100445.91
2023-06-05T03:28:00.218Z,100447.97
2023-06-05T03:33:02.495Z,100450.31
2023-06-05T03:38:04.130Z,100441.28
2023-06-05T03:43:08.602Z,100452.81
2023-06-05T03:48:10.183Z,100447.34
2023-06-05T03:53:14.725Z,100449.25
2023-06-05T03:58:16.454Z,100448.78
2023-06-05T04:03:19.399Z,100456.38
2023-06-05T04:08:21.013Z,100452.59
2023-06-05T04:13:23.069Z,100454.72
2023-06-05T04:18:24.625Z,100458.28
2023-06-05T04:23:26.063Z,100456.63
2023-06-05T04:28:27.616Z,100452.59
2023-06-05T04:33:29.069Z,100453.91
2023-06-05T04:38:30.746Z,100448.19
2023-06-05T04:43:32.188Z,100456.03
2023-06-05T04:48:35.456Z,100460.22
2023-06-05T04:53:37.037Z,100458.28
2023-06-05T04:58:38.882Z,100450.94
2023-06-05T05:03:43.610Z,100459.97
2023-06-05T05:08:47.403Z,100457.34
2023-06-05T05:13:48.915Z,100458.34
2023-06-05T05:18:50.482Z,100453.72
2023-06-05T05:23:52.275Z,100465.50
2023-06-05T05:28:53.850Z,100466.69
2023-06-05T05:33:56.138Z,100459.56
2023-06-05T05:38:57.594Z,100461.22
2023-06-05T05:43:59.042Z,100463.72
2023-06-05T05:49:00.570Z,100463.50
2023-06-05T05:54:02.064Z,100462.41
2023-06-05T05:59:04.455Z,100458.25
2023-06-05T06:04:06.136Z,100462.41
2023-06-05T06:09:09.678Z,100459.44
2023-06-05T06:14:11.546Z,100461.94
2023-06-05T06:19:16.496Z,100455.75
2023-06-05T06:24:20.942Z,100456.94
2023-06-05T06:29:24.402Z,100459.94
2023-06-05T06:34:25.865Z,100466.34
2023-06-05T06:39:27.333Z,100466.34
2023-06-05T06:44:29.380Z,100463.25
2023-06-05T06:49:30.837Z,100466.22
2023-06-05T06:54:32.309Z,100465.41
2023-06-05T06:59:34.077Z,100464.94
2023-06-05T07:04:35.547Z,100469.09
2023-06-05T07:09:37.364Z,100472.28
2023-06-05T07:14:38.928Z,100477.41
2023-06-05T07:19:40.718Z,100468.16
2023-06-05T07:24:42.731Z,100465.53
2023-06-05T07:29:44.193Z,100460.88
2023-06-05T07:34:45.619Z,100461.00
2023-06-05T07:39:48.679Z,100459.22
2023-06-05T07:44:50.229Z,100465.75
2023-06-05T07:50:01.975Z,100463.16
2023-06-05T07:55:03.854Z,100454.31
2023-06-05T08:00:11.716Z,100453.16
2023-06-05T08:05:13.269Z,100451.94
2023-06-05T08:10:14.767Z,100445.06
2023-06-05T08:15:16.218Z,100443.34
2023-06-05T08:20:17.719Z,100443.81
2023-06-05T08:25:19.126Z,100434.97
2023-06-05T08:30:20.681Z,100431.53
2023-06-05T08:35:22.244Z,100427.78
2023-06-05T08:40:23.900Z,100427.06
2023-06-05T08:45:25.349Z,100423.00
2023-06-05T08:50:31.360Z,100418.78
2023-06-05T08:55:32.849Z,100413.66
2023-06-05T09:00:34.318Z,100415.16
2023-06-05T09:05:36.320Z,100405.41
2023-06-05T09:10:37.743Z,100406.56
2023-06-05T09:15:39.295Z,100390.13
2023-06-05T09:20:42.168Z,100396.03
2023-06-05T09:25:50.121Z,100389.47
2023-06-05T09:30:56.334Z,100388.50
2023-06-05T09:36:14.134Z,100377.03
2023-06-05T09:41:16.143Z,100380.06
2023-06-05T09:46:17.767Z,100372.69
2023-06-05T09:51:20.509Z,100372.03
2023-06-05T09:56:22.670Z,100363.97
2023-06-05T10:01:25.221Z,100369.72
2023-06-05T10:06:29.924Z,100360.56
2023-06-05T10:11:31.419Z,100363.81
2023-06-05T10:16:33.118Z,100351.66
2023-06-05T10:21:35.123Z,100350.25
2023-06-05T10:26:59.941Z,100341.13
2023-06-05T10:32:08.869Z,100336.69
2023-06-05T10:37:37.900Z,100334.72
2023-06-05T10:42:39.371Z,100333.88
2023-06-05T10:47:40.960Z,100336.06
2023-06-05T10:52:42.492Z,100332.47
2023-06-05T10:58:01.970Z,100332.47
2023-06-05T11:03:03.492Z,100332.38
2023-06-05T11:08:18.833Z,100330.66
2023-06-05T11:13:20.250Z,100321.16
2023-06-05T11:18:29.698Z,100323.59
2023-06-05T11:23:31.421Z,100318.09
2023-06-05T11:28:39.467Z,100320.28
2023-06-05T11:33:41.144Z,100306.56
2023-06-05T11:38:53.085Z,100307.63
2023-06-05T11:43:54.524Z,100300.97
2023-06-05T11:48:55.943Z,100296.00
2023-06-05T11:53:58.395Z,100295.59
2023-06-05T11:58:59.812Z,100293.50
2023-06-05T12:04:09.015Z,100291.41
2023-06-05T12:09:11.598Z,100283.00
2023-06-05T12:14:13.830Z,100290.47
2023-06-05T12:19:18.072Z,100284.22
2023-06-05T12:24:27.238Z,100279.06
2023-06-05T12:29:30.189Z,100270.06
2023-06-05T12:34:58.649Z,100265.75
2023-06-05T12:40:02.448Z,100256.69
2023-06-05T12:45:07.708Z,100247.09
2023-06-05T12:50:13.235Z,100252.38
2023-06-05T12:55:14.763Z,100247.72
2023-06-05T13:00:17.526Z,100245.28
2023-06-05T13:05:18.969Z,100230.50
2023-06-05T13:10:20.414Z,100232.16
2023-06-05T13:15:21.912Z,100219.56
2023-06-05T13:20:23.393Z,100218.72
2023-06-05T13:25:24.882Z,100215.41
2023-06-05T13:30:26.328Z,100226.72
2023-06-05T13:35:27.765Z,100214.66
2023-06-05T13:40:29.387Z,100217.13
2023-06-05T13:45:30.918Z,100204.72
2023-06-05T13:50:32.322Z,100208.97
2023-06-05T13:55:33.864Z,100203.09
2023-06-05T14:00:35.301Z,100217.00
2023-06-05T14:05:37.306Z,100211.16
2023-06-05T14:10:38.775Z,100200.41
2023-06-05T14:15:40.375Z,100199.53
2023-06-05T14:20:41.926Z,100202.75
2023-06-05T14:25:43.437Z,100205.19
2023-06-05T14:30:44.871Z,100198.84
2023-06-05T14:35:46.303Z,100188.41
2023-06-05T14:40:51.362Z,100181.75
2023-06-05T14:45:52.848Z,100194.06
2023-06-05T14:50:54.286Z,100191.31
2023-06-05T14:55:55.731Z,100197.06
2023-06-05T15:00:59.404Z,100191.81
2023-06-05T15:06:14.839Z,100191.25
2023-06-05T15:11:22.524Z,100198.41
2023-06-05T15:16:36.549Z,100193.41
2023-06-05T15:21:42.143Z,100199.75
2023-06-05T15:26:43.823Z,100190.09
2023-06-05T15:31:47.642Z,100192.03
2023-06-05T15:36:51.030Z,100187.84
2023-06-05T15:41:52.467Z,100186.22
2023-06-05T15:46:54.750Z,100186.44
2023-06-05T15:51:56.263Z,100180.41
2023-06-05T15:57:04.290Z,100186.13
2023-06-05T16:02:06.151Z,100186.38
2023-06-05T16:07:07.709Z,100182.81
2023-06-05T16:12:09.197Z,100176.25
2023-06-05T16:17:11.082Z,100176.72
2023-06-05T16:22:12.508Z,100181.63
2023-06-05T16:27:14.039Z,100181.88
2023-06-05T16:32:15.491Z,100192.81
2023-06-05T16:37:16.937Z,100182.13
2023-06-05T16:42:19.402Z,100186.22
2023-06-05T16:47:21.301Z,100191.41
2023-06-05T16:52:25.001Z,100179.63
2023-06-05T16:57:26.441Z,100194.09
2023-06-05T17:02:28.128Z,100193.59
2023-06-05T17:07:30.074Z,100193.59
2023-06-05T17:12:31.574Z,100200.72
2023-06-05T17:17:33.033Z,100200.72
2023-06-05T17:22:35.186Z,100202.88
2023-06-05T17:27:38.048Z,100203.38
2023-06-05T17:32:39.515Z,100189.44
2023-06-05T17:37:41.026Z,100206.97
2023-06-05T17:42:42.488Z,100209.13
2023-06-05T17:47:44.024Z,100200.56
2023-06-05T17:52:45.658Z,100207.22
2023-06-05T17:57:53.267Z,100208.78
2023-06-05T18:02:54.963Z,100215.53
2023-06-05T18:07:56.529Z,100209.53
2023-06-05T18:12:57.948Z,100211.69
2023-06-05T18:17:59.384Z,100208.63
2023-06-05T18:23:00.921Z,100220.91
2023-06-05T18:28:02.434Z,100229.13
2023-06-05T18:33:04.067Z,100228.28
2023-06-05T18:38:05.562Z,100228.28
2023-06-05T18:43:07.116Z,100236.69
2023-06-05T18:48:08.650Z,100240.56
2023-06-05T18:53:10.351Z,100238.03
2023-06-05T18:58:11.793Z,100252.22
2023-06-05T19:03:13.231Z,100260.31
2023-06-05T19:08:14.688Z,100251.53
2023-06-05T19:13:16.157Z,100256.16
2023-06-05T19:18:17.583Z,100261.81
2023-06-05T19:23:19.081Z,100257.75
2023-06-05T19:28:20.659Z,100266.59
2023-06-05T19:33:22.392Z,100267.16
2023-06-05T19:38:23.956Z,100274.56
2023-06-05T19:43:25.457Z,100278.38
2023-06-05T19:48:26.936Z,100273.41
2023-06-05T19:53:28.347Z,100280.19
2023-06-05T19:58:29.905Z,100275.78
2023-06-05T20:03:31.390Z,100270.09
2023-06-05T20:08:32.865Z,100277.81
2023-06-05T20:13:34.321Z,100272.22
2023-06-05T20:18:36.642Z,100273.88
2023-06-05T20:23:38.255Z,100274.59
2023-06-05T20:28:40.515Z,100264.38
2023-06-05T20:33:42.013Z,100266.88
2023-06-05T20:38:43.457Z,100264.84
2023-06-05T20:43:45.404Z,100260.78
2023-06-05T20:48:52.664Z,100269.25
2023-06-05T20:53:54.131Z,100266.03
2023-06-05T20:58:55.646Z,100267.84
2023-06-05T21:03:57.173Z,100263.19
2023-06-05T21:08:58.724Z,100263.19
2023-06-05T21:14:00.458Z,100269.16
2023-06-05T21:19:03.115Z,100269.06
2023-06-05T21:24:04.717Z,100273.81
2023-06-05T21:29:06.350Z,100274.28
2023-06-05T21:34:07.795Z,100276.78
2023-06-05T21:39:12.186Z,100274.28
2023-06-05T21:44:13.837Z,100270.16
2023-06-05T21:49:16.335Z,100271.22
2023-06-05T21:54:17.868Z,100267.91
2023-06-05T21:59:19.279Z,100268.03
2023-06-05T22:04:20.735Z,100265.03
2023-06-05T22:09:22.205Z,100258.00
2023-06-05T22:14:26.021Z,100256.94
2023-06-05T22:19:28.721Z,100262.41
2023-06-05T22:24:30.290Z,100258.50
2023-06-05T22:29:31.876Z,100267.94
2023-06-05T22:34:35.868Z,100274.44
2023-06-05T22:39:37.411Z,100275.75
2023-06-05T22:44:38.860Z,100278.88
2023-06-05T22:49:40.962Z,100282.78
2023-06-05T22:54:42.381Z,100281.72
2023-06-05T22:59:43.864Z,100276.84
2023-06-05T23:04:45.898Z,100288.03
2023-06-05T23:09:47.370Z,100277.56
2023-06-05T23:14:48.914Z,100292.66
2023-06-05T23:19:50.585Z,100288.72
2023-06-05T23:24:52.025Z,100293.97
2023-06-05T23:29:53.501Z,100287.66
2023-06-05T23:34:54.951Z,100295.03
2023-06-05T23:39:56.379Z,100286.84
2023-06-05T23:44:57.823Z,100289.81
2023-06-05T23:49:59.250Z,100285.75
2023-06-05T23:55:03.362Z,100284.34
